Time;durP1;ratioP1;P1;durP2;ratioP2;P2;SDS_P1;SDS_P2;PMS_P1;PMS_P2;Temp;Humidity;BMP_temperature;BMP_pressure;BME280_temperature;BME280_humidity;BME280_pressure;Samples;Min_cycle;Max_cycle;Signal;HPM_P1;HPM_P2
2021/08/11 05:02:39;;;;;;;;;;;;;;;;;;;;;
2021/08/11 05:10:18;;;;;;;0.10;0.10;;;;;;;18.09;65.03;101910.50;5438848;23;20163;-88
2021/08/11 05:12:45;;;;;;;0.10;0.10;;;;;;;18.12;64.95;101909.53;4917650;29;20040;-89
2021/08/11 05:15:11;;;;;;;0.28;0.28;;;;;;;18.15;65.08;101912.09;4914824;29;20068;-89
2021/08/11 05:17:38;;;;;;;0.47;0.47;;;;;;;18.18;65.18;101917.38;4911297;29;20028;-89
2021/08/11 05:20:05;;;;;;;1.35;0.90;;;;;;;18.19;65.96;101912.84;4909828;29;20477;-89
2021/08/11 05:22:31;;;;;;;0.00;0.00;;;;;;;18.31;65.35;101916.94;4903518;29;20040;-89
2021/08/11 05:24:57;;;;;;;0.10;0.10;;;;;;;18.36;65.53;101923.88;4905288;29;20047;-89
2021/08/11 05:27:25;;;;;;;0.10;0.10;;;;;;;18.42;65.57;101912.91;4908066;29;20055;-88
2021/08/11 05:29:51;;;;;;;0.00;0.00;;;;;;;18.46;65.75;101918.19;4906771;29;20043;-89
2021/08/11 05:32:18;;;;;;;21.13;1.30;;;;;;;18.47;65.78;101919.91;4906179;29;20044;-89
2021/08/11 05:34:45;;;;;;;0.32;0.32;;;;;;;18.49;65.81;101924.31;4889834;29;20485;-91
2021/08/11 05:37:12;;;;;;;0.10;0.10;;;;;;;18.52;66.14;101916.16;4907885;29;20169;-92
2021/08/11 05:39:42;;;;;;;0.45;0.45;;;;;;;18.62;64.58;101923.84;4907031;29;20032;-89
2021/08/11 05:42:13;;;;;;;0.60;0.60;;;;;;;18.68;65.64;101929.00;4900253;29;20037;-89
2021/08/11 05:44:39;;;;;;;0.05;0.05;;;;;;;18.67;65.87;101933.50;4905493;29;20032;-89
2021/08/11 05:47:07;;;;;;;0.47;0.47;;;;;;;18.69;65.64;101931.66;4906964;29;20040;-90
2021/08/11 05:49:36;;;;;;;0.20;0.20;;;;;;;18.65;66.34;101937.19;4908200;29;20079;-89
2021/08/11 05:52:03;;;;;;;0.40;0.40;;;;;;;18.80;65.50;101950.03;4904360;29;20065;-89
2021/08/11 05:54:35;;;;;;;1.85;0.73;;;;;;;18.80;65.62;101952.72;4905654;29;20052;-90
2021/08/11 05:57:02;;;;;;;0.25;0.25;;;;;;;18.85;65.20;101952.53;4906787;29;20028;-89
2021/08/11 05:59:32;;;;;;;0.32;0.32;;;;;;;18.94;65.91;101952.25;4900409;29;20060;-95
2021/08/11 06:01:59;;;;;;;0.47;0.47;;;;;;;19.00;65.35;101943.94;4907311;29;20089;-88
2021/08/11 06:04:49;;;;;;;0.75;0.75;;;;;;;19.08;66.25;101949.91;4907675;29;20059;-90
2021/08/11 06:07:20;;;;;;;0.22;0.22;;;;;;;19.10;65.71;101959.72;4900206;29;20111;-89
2021/08/11 06:09:46;;;;;;;0.60;0.32;;;;;;;19.20;65.58;101961.09;4909556;29;20123;-88
2021/08/11 06:12:13;;;;;;;0.20;0.20;;;;;;;19.25;65.05;101959.13;4909559;29;20025;-89
2021/08/11 06:14:39;;;;;;;0.20;0.20;;;;;;;19.27;65.08;101959.94;4899518;29;20043;-89
2021/08/11 06:17:13;;;;;;;0.65;0.65;;;;;;;19.22;65.18;101967.31;4901364;29;20393;-89
2021/08/11 06:19:43;;;;;;;0.10;0.10;;;;;;;19.38;64.59;101965.75;4908437;29;20032;-90
2021/08/11 06:22:31;;;;;;;1.75;0.63;;;;;;;19.48;64.82;101962.72;4906527;29;20027;-93
2021/08/11 06:24:57;;;;;;;1.20;1.20;;;;;;;19.52;64.11;101964.34;4908371;29;20051;-89
2021/08/11 06:27:24;;;;;;;0.20;0.20;;;;;;;19.47;64.58;101967.22;4898266;29;20028;-90
2021/08/11 06:54:16;;;;;;;;;;;;;;;;;;;;;
2021/08/11 07:13:09;;;;;;;0.17;0.17;;;;;;;20.79;61.49;101975.22;4811774;27;20407;-91
2021/08/11 07:16:21;;;;;;;0.20;0.20;;;;;;;21.01;61.45;101975.13;4875074;29;20480;-91
2021/08/11 07:20:51;;;;;;;0.55;0.55;;;;;;;20.95;60.75;101970.03;4857975;29;20421;-91
2021/08/11 07:22:04;;;;;;;0.20;0.20;;;;;;;20.96;60.60;101971.75;4892522;28;20062;-87
2021/08/11 07:25:10;;;;;;;0.47;0.43;;;;;;;21.29;60.36;101961.22;4906857;29;20557;-92
2021/08/11 07:30:57;;;;;;;0.30;0.30;;;;;;;21.29;60.22;101977.38;4820065;29;20501;-90
2021/08/11 07:37:03;;;;;;;1.65;0.68;;;;;;;21.31;60.26;101975.50;5860539;23;20361;-87
2021/08/11 07:39:29;;;;;;;1.30;1.30;;;;;;;21.29;60.35;101979.22;4900393;29;20048;-85
2021/08/11 07:42:01;;;;;;;0.45;0.45;;;;;;;21.44;60.17;101977.59;4897419;29;20036;-88
2021/08/11 07:44:28;;;;;;;2.90;2.72;;;;;;;21.44;59.70;101975.78;4897330;29;20384;-89
2021/08/11 07:46:54;;;;;;;0.10;0.10;;;;;;;21.62;59.59;101975.88;4897149;29;20041;-89
2021/08/11 07:49:21;;;;;;;0.25;0.25;;;;;;;21.73;58.89;101983.44;4893734;29;20092;-89
2021/08/11 07:51:47;;;;;;;0.20;0.20;;;;;;;21.89;58.11;101981.72;4898211;29;20436;-89
2021/08/11 07:54:13;;;;;;;0.28;0.28;;;;;;;21.98;57.59;101973.19;4898104;29;20572;-89
2021/08/11 07:56:39;;;;;;;0.20;0.20;;;;;;;22.10;57.89;101976.22;4897417;29;20025;-89
2021/08/11 07:59:05;;;;;;;0.10;0.10;;;;;;;22.22;58.07;101972.88;4898031;29;20115;-89
2021/08/11 08:01:32;;;;;;;0.30;0.30;;;;;;;22.22;57.14;101985.50;4897525;29;20043;-89
2021/08/11 08:03:58;;;;;;;0.10;0.10;;;;;;;22.12;55.86;101982.41;4898812;29;20510;-89
2021/08/11 08:06:24;;;;;;;0.15;0.15;;;;;;;22.23;56.63;101982.75;4897649;29;20032;-89
2021/08/11 08:08:50;;;;;;;0.40;0.35;;;;;;;22.18;56.44;101982.09;4898725;29;20511;-88
2021/08/11 08:11:16;;;;;;;0.10;0.10;;;;;;;22.37;56.50;101991.94;4897985;29;20033;-89
2021/08/11 08:13:45;;;;;;;0.10;0.10;;;;;;;22.38;55.60;101978.41;4899490;29;20039;-90
2021/08/11 08:16:14;;;;;;;0.17;0.17;;;;;;;22.49;55.33;101972.44;4898863;29;20031;-90
2021/08/11 08:18:40;;;;;;;0.10;0.10;;;;;;;22.48;55.08;101977.91;4898369;29;20032;-92
2021/08/11 08:21:06;;;;;;;0.10;0.10;;;;;;;22.54;54.13;101981.19;4898189;29;20508;-91
2021/08/11 08:23:35;;;;;;;0.10;0.10;;;;;;;22.60;54.80;101980.88;4898221;29;20036;-89
2021/08/11 08:26:09;;;;;;;0.10;0.10;;;;;;;22.57;53.45;101974.75;4898063;29;20403;-93
2021/08/11 08:28:35;;;;;;;1.05;0.65;;;;;;;22.42;53.47;101984.53;4897695;29;20021;-88
2021/08/11 08:31:01;;;;;;;0.10;0.10;;;;;;;22.56;53.94;101984.66;4897910;29;20036;-88
2021/08/11 08:33:30;;;;;;;0.45;0.45;;;;;;;22.52;54.06;101991.19;4898753;29;20048;-90
2021/08/11 08:35:56;;;;;;;0.15;0.13;;;;;;;22.50;53.37;101993.09;4898376;29;20105;-90
2021/08/11 08:38:22;;;;;;;2.30;1.75;;;;;;;22.46;52.79;101983.41;4898326;29;20041;-89
2021/08/11 08:40:50;;;;;;;6.43;1.30;;;;;;;22.44;52.53;101975.38;4898415;29;20043;-89
2021/08/11 08:43:16;;;;;;;0.10;0.10;;;;;;;22.62;52.09;101983.47;4897845;29;20043;-87
2021/08/11 08:45:45;;;;;;;0.10;0.10;;;;;;;22.61;50.91;101988.00;4898127;29;20033;-86
2021/08/11 08:48:11;;;;;;;1.60;1.50;;;;;;;22.55;50.11;101985.59;4898076;29;20020;-87
2021/08/11 08:50:41;;;;;;;14.15;0.57;;;;;;;22.76;51.28;101990.84;4898058;29;20037;-94
2021/08/11 08:53:12;;;;;;;0.10;0.10;;;;;;;22.68;50.73;101993.06;4897832;29;20025;-90
2021/08/11 08:55:40;;;;;;;0.10;0.10;;;;;;;22.80;51.14;101997.81;4913350;23;20464;-86
2021/08/11 08:58:06;;;;;;;0.93;0.93;;;;;;;22.92;51.10;101986.34;4898770;29;20154;-85
2021/08/11 09:00:35;;;;;;;0.57;0.57;;;;;;;22.98;50.15;101984.25;4898586;29;20068;-86
2021/08/11 09:03:01;;;;;;;0.47;0.47;;;;;;;23.05;49.61;101985.69;4898417;29;20036;-86
2021/08/11 09:05:28;;;;;;;0.10;0.10;;;;;;;23.33;50.53;101984.19;4899406;29;20035;-86
2021/08/11 09:07:55;;;;;;;0.10;0.10;;;;;;;23.27;48.24;101980.84;4898768;29;20036;-81
2021/08/11 09:10:29;;;;;;;0.40;0.40;;;;;;;23.51;49.09;101979.56;4897992;29;20024;-86
2021/08/11 09:12:59;;;;;;;0.10;0.10;;;;;;;23.61;49.24;101986.19;4898272;29;20024;-85
2021/08/11 09:15:35;;;;;;;0.68;0.68;;;;;;;23.64;48.58;101982.44;4897374;29;20396;-85
2021/08/11 09:18:19;;;;;;;0.47;0.47;;;;;;;23.81;48.94;101989.59;4898552;29;20063;-87
2021/08/11 09:20:50;;;;;;;0.03;0.03;;;;;;;23.83;48.89;101988.53;4898296;29;20028;-86
2021/08/11 09:23:34;;;;;;;0.10;0.10;;;;;;;23.88;47.07;101991.84;4898506;29;20032;-88
2021/08/11 09:26:02;;;;;;;0.10;0.10;;;;;;;23.87;46.92;101998.22;4898613;29;20115;-89
2021/08/11 09:28:31;;;;;;;0.20;0.20;;;;;;;24.00;47.31;101992.13;4898715;29;20025;-90
2021/08/11 09:30:58;;;;;;;0.20;0.20;;;;;;;23.90;46.31;101987.22;4897409;29;20479;-89
2021/08/11 09:33:25;;;;;;;0.10;0.10;;;;;;;24.22;47.04;101989.91;4897283;29;20017;-90
2021/08/11 09:35:53;;;;;;;0.93;0.75;;;;;;;24.31;46.74;101984.88;4897338;29;20035;-91
2021/08/11 09:38:20;;;;;;;0.10;0.10;;;;;;;24.58;46.93;101987.75;4899271;29;20080;-90
2021/08/11 09:40:49;;;;;;;0.08;0.08;;;;;;;24.78;47.28;101993.81;4901959;29;20453;-90
2021/08/11 09:43:30;;;;;;;0.15;0.15;;;;;;;25.02;45.88;102000.44;4902200;29;20029;-88
2021/08/11 09:45:56;;;;;;;0.10;0.10;;;;;;;24.98;44.51;101998.00;4903384;29;20400;-88
2021/08/11 09:48:25;;;;;;;0.20;0.20;;;;;;;25.08;45.79;101999.16;4902943;29;20394;-90
2021/08/11 09:51:00;;;;;;;1.05;1.05;;;;;;;24.79;44.07;102003.72;4902137;29;20119;-88
2021/08/11 09:56:11;;;;;;;0.10;0.10;;;;;;;24.81;45.35;101983.66;5104364;27;20394;-88
2021/08/11 09:58:39;;;;;;;0.10;0.10;;;;;;;24.82;44.50;101993.56;5065292;28;20024;-90
2021/08/11 10:01:23;;;;;;;0.20;0.20;;;;;;;24.87;45.37;101995.94;5069052;28;20048;-87
2021/08/11 10:04:06;;;;;;;0.13;0.13;;;;;;;25.08;45.79;101995.59;5068345;28;20523;-96
2021/08/11 10:06:35;;;;;;;0.28;0.28;;;;;;;25.21;45.44;101996.56;5069015;28;20022;-96
2021/08/11 10:09:24;;;;;;;0.10;0.10;;;;;;;25.41;44.49;101989.88;5057448;28;20035;-95
2021/08/11 10:11:56;;;;;;;0.65;0.63;;;;;;;25.52;45.00;101991.84;5058364;28;20060;-96
2021/08/11 10:14:27;;;;;;;0.03;0.03;;;;;;;25.58;43.67;101999.59;5058436;28;20041;-95
2021/08/11 10:16:55;;;;;;;0.20;0.20;;;;;;;25.75;44.82;102003.91;5056864;28;20037;-96
2021/08/11 10:19:28;;;;;;;0.10;0.10;;;;;;;25.89;44.43;102004.84;5059638;28;20027;-95
2021/08/11 10:22:05;;;;;;;0.77;0.77;;;;;;;25.82;44.15;102007.09;5064941;28;20029;-96
2021/08/11 10:24:32;;;;;;;0.22;0.22;;;;;;;25.80;44.63;102012.63;5068860;28;20025;-96
2021/08/11 10:26:58;;;;;;;0.10;0.10;;;;;;;25.97;44.17;102010.63;5079853;23;20054;-87
2021/08/11 10:29:25;;;;;;;0.10;0.10;;;;;;;26.08;44.18;102010.84;5069556;28;20028;-87
2021/08/11 10:31:51;;;;;;;0.10;0.10;;;;;;;26.24;43.75;102009.78;5069785;28;20103;-86
2021/08/11 10:34:18;;;;;;;0.10;0.10;;;;;;;26.34;43.87;102010.03;5069099;28;20429;-87
2021/08/11 10:36:46;;;;;;;2.10;0.60;;;;;;;26.44;43.33;102001.13;5068860;28;20089;-87
2021/08/11 10:39:14;;;;;;;0.10;0.10;;;;;;;26.48;42.31;102007.22;5068845;28;20085;-87
2021/08/11 10:41:40;;;;;;;0.52;0.35;;;;;;;26.53;42.77;102004.19;5070001;28;20145;-87
2021/08/11 10:44:17;;;;;;;0.10;0.10;;;;;;;26.75;42.04;102009.03;5069622;28;20040;-87
2021/08/11 10:46:48;;;;;;;0.08;0.08;;;;;;;26.78;42.17;101997.91;5069077;28;20037;-91
2021/08/11 10:49:18;;;;;;;0.10;0.10;;;;;;;26.90;42.17;101997.03;5072081;28;20028;-90
2021/08/11 10:51:47;;;;;;;0.10;0.10;;;;;;;27.01;42.56;102007.16;5072896;28;20048;-87
2021/08/11 10:54:14;;;;;;;0.85;0.85;;;;;;;26.86;41.36;102011.00;5061657;28;20028;-90
2021/08/11 10:56:52;;;;;;;0.10;0.10;;;;;;;27.12;41.92;101999.09;5061531;28;20025;-91
2021/08/11 11:02:43;;;;;;;0.10;0.10;;;;;;;27.08;41.32;102005.75;5126951;27;20401;-91
2021/08/11 11:10:55;;;;;;;0.10;0.10;;;;;;;27.11;41.06;102015.53;5111035;27;20351;-90
2021/08/11 11:16:09;;;;;;;0.10;0.10;;;;;;;27.26;41.05;102014.41;5066000;27;20410;-92
2021/08/11 11:18:55;;;;;;;0.25;0.25;;;;;;;27.30;40.88;102015.06;5049719;28;20036;-92
2021/08/11 11:24:53;;;;;;;0.45;0.45;;;;;;;27.41;40.68;102012.44;5065487;27;20416;-89
2021/08/11 11:36:25;;;;;;;0.30;0.30;;;;;;;27.33;40.52;102013.97;5045686;28;20921;-87
2021/08/11 11:39:08;;;;;;;0.10;0.10;;;;;;;27.41;39.58;102017.91;5040075;28;20515;-87
2021/08/11 11:41:36;;;;;;;0.40;0.40;;;;;;;27.36;38.54;102014.59;5038759;28;20029;-87
2021/08/11 11:44:42;;;;;;;1.25;0.95;;;;;;;27.50;39.06;102007.31;5038870;28;20049;-87
2021/08/11 11:47:11;;;;;;;0.20;0.20;;;;;;;27.23;36.94;102008.34;5037408;28;20034;-87
2021/08/11 11:49:39;;;;;;;0.30;0.30;;;;;;;27.48;37.33;102012.00;5036995;28;20367;-87
2021/08/11 11:52:12;;;;;;;0.08;0.08;;;;;;;27.66;38.74;102012.50;5030641;28;20105;-86
2021/08/11 11:54:47;;;;;;;0.55;0.50;;;;;;;27.86;38.31;102014.59;5030076;28;20480;-87
2021/08/11 11:57:17;;;;;;;0.10;0.10;;;;;;;27.86;36.60;102016.47;5030197;28;20123;-87
2021/08/11 11:59:46;;;;;;;0.20;0.20;;;;;;;27.99;38.00;102011.81;5030130;28;20056;-87
2021/08/11 12:02:19;;;;;;;0.22;0.22;;;;;;;28.05;36.63;102008.66;5030023;28;20061;-86
2021/08/11 12:05:05;;;;;;;0.20;0.20;;;;;;;28.18;36.33;102015.91;5029922;28;20365;-87
2021/08/11 12:07:34;;;;;;;0.10;0.10;;;;;;;28.09;36.23;102012.03;5029556;28;20041;-87
2021/08/11 12:10:03;;;;;;;0.10;0.10;;;;;;;28.18;35.79;102015.91;5029799;28;20073;-87
2021/08/11 12:12:29;;;;;;;0.40;0.40;;;;;;;28.23;37.91;102008.25;5029289;28;20044;-87
2021/08/11 12:17:56;;;;;;;0.10;0.10;;;;;;;28.54;36.04;102000.41;5080736;27;20450;-86
2021/08/11 12:20:31;;;;;;;0.10;0.10;;;;;;;28.78;37.79;101997.63;5069736;28;20044;-86
2021/08/11 12:22:59;;;;;;;0.20;0.20;;;;;;;28.75;35.08;101991.53;5039555;28;20048;-86
2021/08/11 12:25:28;;;;;;;0.32;0.28;;;;;;;28.83;36.42;102000.00;5052853;28;20044;-86
2021/08/11 12:28:15;;;;;;;0.10;0.10;;;;;;;28.83;35.09;101991.81;5038650;28;20223;-86
2021/08/11 12:30:49;;;;;;;0.20;0.20;;;;;;;28.78;39.22;101994.03;5048620;28;20361;-86
2021/08/11 12:33:19;;;;;;;0.10;0.10;;;;;;;28.88;35.93;101992.31;5049671;28;20021;-86
2021/08/11 12:35:45;;;;;;;0.57;0.57;;;;;;;29.03;37.04;101995.66;5049125;28;20423;-86
2021/08/11 12:38:23;;;;;;;0.10;0.10;;;;;;;29.15;36.21;101996.53;5049361;28;20022;-86
2021/08/11 12:40:49;;;;;;;0.20;0.20;;;;;;;29.19;36.22;101989.81;5049179;28;20485;-86
2021/08/11 12:43:15;;;;;;;0.65;0.60;;;;;;;29.29;36.45;101985.38;5044047;28;20422;-86
2021/08/11 12:46:00;;;;;;;0.20;0.20;;;;;;;29.40;36.69;101992.69;5049194;28;20021;-86
2021/08/11 12:48:30;;;;;;;1.83;0.60;;;;;;;29.11;35.24;101987.72;5046982;28;20056;-87
2021/08/11 12:51:00;;;;;;;0.10;0.10;;;;;;;29.05;35.06;101988.22;5044720;28;20029;-85
2021/08/11 12:53:29;;;;;;;0.30;0.30;;;;;;;29.33;36.03;101986.84;5048841;28;20026;-86
2021/08/11 12:56:16;;;;;;;0.30;0.30;;;;;;;29.53;33.98;101992.53;5043885;28;20389;-85
2021/08/11 12:59:05;;;;;;;0.10;0.10;;;;;;;29.63;34.78;101989.91;5048769;28;20033;-86
2021/08/11 13:07:07;;;;;;;0.10;0.10;;;;;;;29.81;34.77;101984.78;5059510;28;20135;-89
2021/08/11 13:09:33;;;;;;;0.47;0.47;;;;;;;29.88;35.42;101980.50;5048433;28;20075;-86
2021/08/11 13:12:03;;;;;;;0.55;0.55;;;;;;;29.96;34.86;101988.09;5046687;28;20028;-86
2021/08/11 13:14:47;;;;;;;0.32;0.32;;;;;;;30.37;35.33;101980.06;5045262;28;20451;-87
2021/08/11 13:17:16;;;;;;;0.10;0.10;;;;;;;30.39;35.39;101984.38;5041153;28;20026;-87
2021/08/11 13:19:43;;;;;;;0.10;0.10;;;;;;;30.33;33.47;101972.13;5029285;28;20056;-87
2021/08/11 13:22:24;;;;;;;0.10;0.10;;;;;;;30.33;34.80;101972.13;5030217;28;20030;-85
2021/08/11 13:24:52;;;;;;;0.45;0.45;;;;;;;30.36;35.24;101972.84;5027498;28;20025;-86
2021/08/11 13:27:19;;;;;;;0.10;0.10;;;;;;;30.60;34.81;101970.72;5035461;28;20021;-84
2021/08/11 13:29:45;;;;;;;0.45;0.45;;;;;;;30.72;34.59;101960.59;5040090;28;20401;-85
2021/08/11 13:32:14;;;;;;;0.52;0.52;;;;;;;30.89;33.92;101961.81;5045747;28;20073;-92
2021/08/11 13:34:44;;;;;;;0.10;0.10;;;;;;;30.96;33.65;101956.66;5048887;28;20068;-88
2021/08/11 13:37:23;;;;;;;0.20;0.20;;;;;;;31.00;33.41;101957.25;5034132;28;20025;-85
2021/08/11 13:39:50;;;;;;;0.20;0.20;;;;;;;30.99;32.32;101948.16;5033593;28;20068;-84
2021/08/11 13:42:22;;;;;;;0.55;0.43;;;;;;;31.12;33.67;101954.31;5036452;28;20029;-86
2021/08/11 13:45:08;;;;;;;0.20;0.20;;;;;;;31.19;33.27;101954.63;5039755;28;20029;-86
2021/08/11 13:47:46;;;;;;;0.20;0.20;;;;;;;31.03;33.84;101955.13;5035899;28;20461;-85
2021/08/11 13:50:16;;;;;;;0.10;0.10;;;;;;;31.14;33.59;101952.31;5034255;28;20420;-88
2021/08/11 13:55:32;;;;;;;0.10;0.10;;;;;;;31.07;34.49;101953.84;5051746;23;20424;-93
2021/08/11 13:58:10;;;;;;;0.10;0.10;;;;;;;30.66;32.53;101964.72;5049668;28;20025;-90
2021/08/11 14:00:36;;;;;;;0.47;0.47;;;;;;;31.01;33.82;101951.63;5048118;28;20056;-85
2021/08/11 14:03:04;;;;;;;0.10;0.10;;;;;;;30.86;33.27;101962.09;5045885;28;20116;-86
2021/08/11 14:05:31;;;;;;;0.10;0.10;;;;;;;31.16;32.90;101954.03;5049497;28;20048;-86
2021/08/11 14:07:58;;;;;;;0.73;0.73;;;;;;;31.14;32.97;101951.41;5049003;28;20025;-86
2021/08/11 14:10:28;;;;;;;0.10;0.10;;;;;;;31.20;33.99;101950.00;5049795;28;20041;-85
2021/08/11 14:12:54;;;;;;;0.30;0.30;;;;;;;31.23;32.92;101952.44;5048852;28;20043;-87
2021/08/11 14:15:40;;;;;;;2.20;0.32;;;;;;;31.07;32.08;101944.78;5048339;28;20112;-86
2021/08/11 14:18:09;;;;;;;0.13;0.13;;;;;;;31.45;33.07;101943.13;5035366;28;20033;-86
2021/08/11 14:20:40;;;;;;;0.10;0.10;;;;;;;31.49;31.55;101944.59;5037017;28;20026;-86
2021/08/11 14:23:07;;;;;;;0.10;0.10;;;;;;;31.67;33.07;101946.69;5035054;28;20453;-87
2021/08/11 14:25:34;;;;;;;2.35;0.65;;;;;;;31.46;30.48;101939.41;5035965;28;20044;-86
2021/08/11 14:28:01;;;;;;;0.00;0.00;;;;;;;31.64;30.80;101936.88;5035829;28;20033;-85
2021/08/11 14:30:28;;;;;;;1.90;0.90;;;;;;;31.69;31.26;101944.63;5035967;28;20389;-86
2021/08/11 14:32:55;;;;;;;0.10;0.10;;;;;;;31.69;30.91;101936.41;5036818;28;20547;-87
2021/08/11 14:35:21;;;;;;;0.20;0.20;;;;;;;31.95;31.80;101944.91;5023501;28;20121;-85
2021/08/11 14:37:48;;;;;;;0.10;0.10;;;;;;;31.83;31.48;101935.13;5034583;28;20431;-89
2021/08/11 14:40:14;;;;;;;0.30;0.30;;;;;;;31.82;32.02;101939.75;5036554;28;20425;-87
2021/08/11 14:42:41;;;;;;;0.20;0.20;;;;;;;31.93;32.34;101934.13;5037081;28;20037;-87
2021/08/11 14:45:08;;;;;;;0.43;0.43;;;;;;;31.72;31.88;101933.41;5036383;28;20029;-89
2021/08/11 14:47:34;;;;;;;0.10;0.10;;;;;;;31.75;32.74;101938.59;5037229;28;20584;-89
2021/08/11 14:50:01;;;;;;;0.47;0.47;;;;;;;31.88;33.22;101939.16;5036318;28;20172;-90
2021/08/11 14:52:27;;;;;;;0.40;0.40;;;;;;;32.00;32.75;101936.28;5037523;28;20026;-87
2021/08/11 14:54:54;;;;;;;0.20;0.20;;;;;;;32.07;32.30;101938.28;5022715;28;20030;-86
2021/08/11 14:57:20;;;;;;;1.85;0.95;;;;;;;32.10;31.60;101931.63;5024978;28;20080;-85
2021/08/11 14:59:46;;;;;;;0.73;0.73;;;;;;;32.19;31.75;101939.03;5023870;28;20030;-85
2021/08/11 15:02:12;;;;;;;0.85;0.60;;;;;;;32.12;32.80;101934.25;5023190;28;20030;-88
2021/08/11 15:04:38;;;;;;;0.00;0.00;;;;;;;32.21;32.85;101934.25;5026522;28;20030;-81
2021/08/11 15:07:04;;;;;;;0.20;0.20;;;;;;;32.14;31.87;101933.09;5026090;28;20025;-85
2021/08/11 15:09:31;;;;;;;0.10;0.10;;;;;;;32.17;31.61;101932.78;5027246;28;20517;-87
2021/08/11 15:11:57;;;;;;;0.20;0.20;;;;;;;32.24;31.87;101928.47;5025225;28;20113;-83
2021/08/11 15:14:23;;;;;;;0.10;0.10;;;;;;;32.07;31.74;101930.06;5023448;28;20851;-86
2021/08/11 15:16:49;;;;;;;0.00;0.00;;;;;;;32.00;32.28;101936.28;5024728;28;20030;-86
2021/08/11 15:19:15;;;;;;;0.22;0.22;;;;;;;31.83;33.20;101929.63;5023029;28;20076;-86
2021/08/11 15:21:41;;;;;;;0.40;0.40;;;;;;;31.76;33.72;101934.84;5024911;28;20034;-86
2021/08/11 15:24:09;;;;;;;0.35;0.35;;;;;;;31.66;33.02;101933.97;5023306;28;20026;-86
2021/08/11 15:26:36;;;;;;;0.28;0.28;;;;;;;31.51;32.02;101938.97;5024884;28;20508;-86
2021/08/11 15:29:02;;;;;;;0.10;0.10;;;;;;;31.08;32.66;101935.56;5023493;28;20497;-86
2021/08/11 15:31:29;;;;;;;0.28;0.28;;;;;;;31.17;32.84;101933.84;5028441;28;20382;-86
2021/08/11 15:33:55;;;;;;;0.00;0.00;;;;;;;31.07;32.41;101928.38;5028141;28;20632;-87
2021/08/11 15:36:21;;;;;;;0.22;0.22;;;;;;;31.14;33.14;101935.00;5022875;28;20478;-87
2021/08/11 15:38:47;;;;;;;0.22;0.22;;;;;;;31.26;33.13;101933.88;5025285;28;20116;-85
2021/08/11 15:41:13;;;;;;;0.10;0.10;;;;;;;31.30;31.39;101929.88;5023523;28;20030;-85
2021/08/11 15:43:40;;;;;;;0.10;0.10;;;;;;;31.57;33.00;101931.03;5022679;28;20133;-85
2021/08/11 15:46:08;;;;;;;0.20;0.20;;;;;;;31.83;32.48;101929.63;5020303;28;20044;-84
2021/08/11 15:48:35;;;;;;;0.00;0.00;;;;;;;31.96;31.81;101934.84;5030599;28;20192;-86
2021/08/11 15:51:01;;;;;;;1.30;0.32;;;;;;;32.04;32.01;101933.09;5030148;28;20567;-85
2021/08/11 15:53:27;;;;;;;0.00;0.00;;;;;;;31.98;31.42;101928.19;5029832;28;20494;-85
2021/08/11 15:55:53;;;;;;;1.00;0.98;;;;;;;32.03;31.81;101930.53;5026555;28;20045;-86
2021/08/11 15:58:19;;;;;;;0.45;0.45;;;;;;;31.86;30.45;101927.47;5023135;28;20037;-85
2021/08/11 16:00:47;;;;;;;0.73;0.73;;;;;;;31.96;32.31;101919.25;5024813;28;20017;-85
2021/08/11 16:03:14;;;;;;;0.20;0.20;;;;;;;31.97;32.14;101922.88;5024769;28;20032;-86
2021/08/11 16:05:40;;;;;;;0.05;0.05;;;;;;;32.03;31.52;101919.56;5028595;28;20083;-87
2021/08/11 16:08:06;;;;;;;0.30;0.30;;;;;;;32.02;33.09;101912.34;5029981;28;20076;-89
2021/08/11 16:10:33;;;;;;;0.00;0.00;;;;;;;31.96;31.13;101912.91;5032480;28;20037;-91
2021/08/11 16:13:00;;;;;;;0.10;0.10;;;;;;;32.20;32.44;101909.72;5032206;28;20108;-87
2021/08/11 16:15:26;;;;;;;0.38;0.38;;;;;;;32.35;31.86;101907.38;5029610;28;20433;-88
2021/08/11 16:17:52;;;;;;;0.22;0.20;;;;;;;32.29;30.06;101910.72;5023400;28;20370;-90
2021/08/11 16:20:18;;;;;;;0.00;0.00;;;;;;;32.39;31.31;101914.31;5033471;28;20053;-89
2021/08/11 16:22:45;;;;;;;0.00;0.00;;;;;;;32.24;30.60;101914.78;5034002;28;20032;-89
2021/08/11 16:25:11;;;;;;;0.10;0.10;;;;;;;32.21;31.05;101927.91;5033847;28;20045;-89
2021/08/11 16:27:40;;;;;;;0.15;0.15;;;;;;;32.07;31.54;101927.31;5018898;28;20098;-88
2021/08/11 16:30:14;;;;;;;0.15;0.15;;;;;;;32.32;31.06;101924.16;5013850;28;20030;-89
2021/08/11 16:32:41;;;;;;;0.77;0.47;;;;;;;32.15;31.00;101925.72;5029032;28;20144;-89
2021/08/11 16:35:08;;;;;;;0.38;0.38;;;;;;;32.28;31.33;101922.69;5033321;28;20057;-88
2021/08/11 16:37:34;;;;;;;0.10;0.10;;;;;;;32.29;31.85;101943.63;5032864;28;20040;-88
2021/08/11 16:40:01;;;;;;;0.00;0.00;;;;;;;32.31;31.53;101931.50;5033269;28;20403;-88
2021/08/11 16:42:38;;;;;;;0.10;0.10;;;;;;;32.34;30.58;101928.47;5032981;28;20041;-89
2021/08/11 16:45:14;;;;;;;0.20;0.20;;;;;;;32.23;31.43;101926.75;5032942;28;20075;-90
2021/08/11 16:47:58;;;;;;;0.20;0.20;;;;;;;32.04;31.13;101933.09;5032525;28;20396;-90
2021/08/11 16:50:27;;;;;;;0.10;0.10;;;;;;;31.89;31.19;101934.53;5033236;28;20060;-90
2021/08/11 16:53:06;;;;;;;1.25;1.17;;;;;;;31.55;31.44;101938.53;5032800;28;20022;-91
2021/08/11 16:55:37;;;;;;;0.20;0.20;;;;;;;31.67;32.02;101941.19;5033044;28;20083;-90
2021/08/11 16:58:03;;;;;;;0.25;0.25;;;;;;;31.44;32.95;101938.66;5032916;28;20388;-86
2021/08/11 17:00:30;;;;;;;0.13;0.13;;;;;;;31.00;32.89;101929.91;5033306;28;20113;-86
2021/08/11 17:02:56;;;;;;;0.80;0.20;;;;;;;30.72;33.50;101941.44;5030955;28;20029;-86
2021/08/11 17:05:22;;;;;;;1.00;0.45;;;;;;;30.32;34.45;101931.28;5021582;28;20492;-87
2021/08/11 17:07:59;;;;;;;0.10;0.10;;;;;;;30.13;34.13;101929.25;5030856;28;20488;-96
2021/08/11 17:10:26;;;;;;;0.20;0.20;;;;;;;30.08;34.38;101931.53;5028042;28;20022;-92
2021/08/11 17:16:14;;;;;;;0.10;0.10;;;;;;;30.18;35.39;101938.81;5296081;22;20046;-90
2021/08/11 17:18:40;;;;;;;0.10;0.10;;;;;;;30.02;35.21;101941.13;5011030;28;20034;-83
2021/08/11 17:21:08;;;;;;;0.10;0.10;;;;;;;29.76;35.65;101935.09;5011327;28;20065;-92
2021/08/11 17:23:35;;;;;;;0.25;0.25;;;;;;;29.75;35.21;101938.84;5011110;28;20033;-93
2021/08/11 17:26:03;;;;;;;0.57;0.57;;;;;;;29.98;35.81;101935.06;5010540;28;20038;-94
2021/08/11 17:28:35;;;;;;;0.00;0.00;;;;;;;30.13;34.94;101924.66;5011491;28;20458;-90
2021/08/11 17:31:02;;;;;;;;;;;;;;;30.43;35.19;101930.31;5015888;28;20048;-94
2021/08/11 17:33:37;;;;;;;0.20;0.20;;;;;;;30.37;35.28;101933.56;5022391;28;19917;-96
2021/08/11 17:39:49;;;;;;;7.97;1.08;;;;;;;29.75;36.77;101936.13;5028926;28;20095;-90
2021/08/11 17:42:22;;;;;;;0.30;0.30;;;;;;;29.46;37.89;101936.69;5028297;28;20080;-90
2021/08/11 17:44:48;;;;;;;0.03;0.03;;;;;;;29.17;38.55;101931.75;5028011;28;20082;-87
2021/08/11 17:47:17;;;;;;;0.00;0.00;;;;;;;28.93;40.16;101932.78;5027152;28;20153;-92
2021/08/11 17:49:46;;;;;;;0.08;0.08;;;;;;;28.78;39.82;101937.63;5028930;28;20534;-88
2021/08/11 17:52:16;;;;;;;0.20;0.20;;;;;;;28.57;41.43;101940.16;5031840;28;20021;-89
2021/08/11 17:57:41;;;;;;;0.20;0.20;;;;;;;28.51;41.04;101927.03;4990582;28;20054;-82
2021/08/11 18:00:08;;;;;;;2.83;0.40;;;;;;;28.70;40.60;101923.75;4993562;28;20477;-82
2021/08/11 18:02:38;;;;;;;0.22;0.13;;;;;;;28.85;39.86;101921.66;4988407;28;20035;-83
2021/08/11 18:05:05;;;;;;;0.10;0.10;;;;;;;28.93;40.61;101923.75;5004052;28;20029;-84
2021/08/11 18:07:32;;;;;;;0.10;0.10;;;;;;;28.88;40.98;101921.38;5010165;28;20033;-84
2021/08/11 18:10:01;;;;;;;0.38;0.30;;;;;;;28.78;41.36;101917.66;4999871;28;20039;-86
2021/08/11 18:12:27;;;;;;;0.28;0.28;;;;;;;28.72;41.40;101910.84;4997419;28;20037;-87
2021/08/11 18:14:55;;;;;;;0.00;0.00;;;;;;;28.57;41.79;101923.81;4996095;28;21508;-83
2021/08/11 18:17:23;;;;;;;0.13;0.13;;;;;;;28.53;41.03;101922.34;4992442;28;20042;-82
2021/08/11 18:19:49;;;;;;;0.15;0.15;;;;;;;28.40;41.61;101922.44;4995160;28;20054;-82
2021/08/11 18:22:18;;;;;;;0.10;0.10;;;;;;;28.31;42.71;101928.59;4978479;28;21290;-82